createdAt,value
2022-11-01T00:01:36.827Z,10.95
2022-11-01T00:04:05.916Z,10.93
2022-11-01T00:06:33.641Z,10.87
2022-11-01T00:09:01.291Z,10.90
2022-11-01T00:11:28.995Z,10.88
2022-11-01T00:13:56.719Z,10.48
2022-11-01T00:16:24.350Z,10.40
2022-11-01T00:18:52.006Z,10.65
2022-11-01T00:21:21.301Z,10.70
2022-11-01T00:23:49.210Z,9.92
2022-11-01T00:26:18.811Z,9.68
2022-11-01T00:28:46.823Z,9.56
2022-11-01T00:31:14.921Z,10.11
2022-11-01T00:33:42.889Z,9.83
2022-11-01T00:36:10.920Z,10.25
2022-11-01T00:38:40.380Z,10.31
2022-11-01T00:41:08.332Z,10.10
2022-11-01T00:43:36.895Z,9.64
2022-11-01T00:46:05.054Z,9.93
2022-11-01T00:48:32.805Z,10.19
2022-11-01T00:51:00.451Z,10.36
2022-11-01T00:53:28.118Z,9.83
2022-11-01T00:56:01.966Z,9.85
2022-11-01T00:58:29.728Z,10.27
2022-11-01T01:00:57.717Z,10.36
2022-11-01T01:03:25.520Z,9.91
2022-11-01T01:05:54.059Z,9.99
2022-11-01T01:08:21.904Z,10.18
2022-11-01T01:10:49.592Z,9.88
2022-11-01T01:13:18.603Z,10.37
2022-11-01T01:15:46.250Z,9.77
2022-11-01T01:18:14.307Z,9.99
2022-11-01T01:20:41.926Z,9.89
2022-11-01T01:23:09.583Z,9.66
2022-11-01T01:25:39.512Z,9.75
2022-11-01T01:28:07.118Z,9.59
2022-11-01T01:30:36.105Z,9.85
2022-11-01T01:33:03.797Z,9.56
2022-11-01T01:35:31.502Z,9.73
2022-11-01T01:37:59.358Z,9.85
2022-11-01T01:40:27.470Z,10.08
2022-11-01T01:42:55.105Z,9.96
2022-11-01T01:45:29.745Z,9.94
2022-11-01T01:48:01.155Z,9.98
2022-11-01T01:50:31.930Z,10.23
2022-11-01T01:53:03.361Z,9.86
2022-11-01T01:55:33.936Z,10.05
2022-11-01T01:58:05.844Z,10.44
2022-11-01T02:00:34.235Z,9.98
2022-11-01T02:03:03.856Z,9.83
2022-11-01T02:05:35.783Z,9.79
2022-11-01T02:08:04.155Z,10.23
2022-11-01T02:10:32.272Z,10.27
2022-11-01T02:13:00.006Z,10.42
2022-11-01T02:15:31.779Z,10.26
2022-11-01T02:18:08.322Z,9.97
2022-11-01T02:20:43.351Z,9.92
2022-11-01T02:23:28.702Z,10.22
2022-11-01T02:26:04.653Z,10.43
2022-11-01T02:28:46.885Z,10.41
2022-11-01T02:31:24.623Z,10.00
2022-11-01T02:33:56.568Z,10.29
2022-11-01T02:36:27.545Z,10.31
2022-11-01T02:38:59.957Z,9.71
2022-11-01T02:41:31.587Z,9.51
2022-11-01T02:44:01.294Z,9.60
2022-11-01T02:46:45.562Z,9.76
2022-11-01T02:49:16.786Z,9.62
2022-11-01T02:51:45.494Z,9.99
2022-11-01T02:54:21.596Z,10.18
2022-11-01T02:56:49.642Z,10.26
2022-11-01T02:59:19.326Z,9.74
2022-11-01T03:01:50.734Z,9.74
2022-11-01T03:04:19.838Z,9.62
2022-11-01T03:06:50.564Z,9.54
2022-11-01T03:09:18.368Z,9.58
2022-11-01T03:11:50.264Z,9.86
2022-11-01T03:14:24.277Z,9.51
2022-11-01T03:16:54.923Z,9.30
2022-11-01T03:19:31.456Z,9.65
2022-11-01T03:22:02.898Z,9.84
2022-11-01T03:24:32.936Z,9.53
2022-11-01T03:27:04.009Z,9.28
2022-11-01T03:29:33.230Z,9.27
2022-11-01T03:32:02.919Z,9.52
2022-11-01T03:34:33.951Z,9.45
2022-11-01T03:37:03.382Z,9.26
2022-11-01T03:39:33.757Z,9.07
2022-11-01T03:42:04.822Z,9.24
2022-11-01T03:44:34.123Z,9.05
2022-11-01T03:47:01.778Z,9.27
2022-11-01T03:49:29.384Z,9.62
2022-11-01T03:51:58.370Z,10.00
2022-11-01T03:54:27.258Z,10.29
2022-11-01T03:56:54.931Z,10.36
2022-11-01T03:59:23.266Z,10.25
2022-11-01T04:01:51.107Z,10.39
2022-11-01T04:04:19.090Z,10.28
2022-11-01T04:06:46.838Z,10.25
2022-11-01T04:09:15.877Z,10.57
2022-11-01T04:11:43.775Z,10.51
2022-11-01T04:14:29.165Z,10.89
2022-11-01T04:17:14.434Z,10.87
2022-11-01T04:19:59.723Z,10.55
2022-11-01T04:22:27.473Z,10.20
2022-11-01T04:24:56.469Z,10.90
2022-11-01T04:27:24.406Z,10.35
2022-11-01T04:29:51.980Z,10.38
2022-11-01T04:32:19.617Z,10.58
2022-11-01T04:34:47.237Z,10.96
2022-11-01T04:37:14.884Z,10.56
2022-11-01T04:39:43.111Z,9.94
2022-11-01T04:42:12.148Z,10.45
2022-11-01T04:44:39.832Z,10.59
2022-11-01T04:47:07.431Z,10.91
2022-11-01T04:49:35.066Z,11.09
2022-11-01T04:52:02.682Z,11.17
2022-11-01T04:54:33.602Z,11.17
2022-11-01T04:57:01.382Z,11.07
2022-11-01T04:59:30.372Z,10.63
2022-11-01T05:01:58.091Z,10.44
2022-11-01T05:04:25.731Z,10.62
2022-11-01T05:06:53.393Z,10.84
2022-11-01T05:09:20.995Z,10.57
2022-11-01T05:11:48.605Z,10.55
2022-11-01T05:14:16.210Z,10.85
2022-11-01T05:16:45.178Z,11.09
2022-11-01T05:19:12.743Z,11.33
2022-11-01T05:21:40.382Z,11.40
2022-11-01T05:24:08.448Z,11.36
2022-11-01T05:26:36.248Z,11.43
2022-11-01T05:29:08.955Z,11.01
2022-11-01T05:31:47.593Z,10.70
2022-11-01T05:34:15.542Z,10.57
2022-11-01T05:36:43.467Z,10.57
2022-11-01T05:39:11.502Z,11.00
2022-11-01T05:41:40.589Z,11.32
2022-11-01T05:44:08.604Z,11.56
2022-11-01T05:46:36.503Z,11.61
2022-11-01T05:49:05.965Z,11.64
2022-11-01T05:51:33.931Z,11.89
2022-11-01T05:54:01.943Z,12.24
2022-11-01T05:56:29.953Z,12.40
2022-11-01T05:58:57.930Z,12.21
2022-11-01T06:01:25.860Z,12.47
2022-11-01T06:03:54.147Z,12.63
2022-11-01T06:06:23.420Z,12.89
2022-11-01T06:08:51.480Z,12.97
2022-11-01T06:11:19.466Z,13.05
2022-11-01T06:13:47.390Z,13.23
2022-11-01T06:16:15.299Z,13.29
2022-11-01T06:18:43.234Z,13.26
2022-11-01T06:21:11.243Z,13.51
2022-11-01T06:23:40.660Z,13.60
2022-11-01T06:26:08.661Z,13.64
2022-11-01T06:28:36.558Z,13.68
2022-11-01T06:33:34.053Z,13.81
2022-11-01T06:36:01.954Z,13.83
2022-11-01T06:38:31.203Z,13.90
2022-11-01T06:41:01.537Z,13.95
2022-11-01T06:43:32.069Z,13.98
2022-11-01T06:46:01.115Z,13.94
2022-11-01T06:48:29.296Z,13.86
2022-11-01T06:50:56.915Z,13.63
2022-11-01T06:53:24.914Z,13.74
2022-11-01T06:55:52.571Z,13.54
2022-11-01T06:58:21.472Z,13.62
2022-11-01T07:00:49.172Z,13.55
2022-11-01T07:03:16.893Z,13.52
2022-11-01T07:05:44.878Z,13.65
2022-11-01T07:08:13.912Z,13.94
2022-11-01T07:10:42.941Z,14.11
2022-11-01T07:13:12.186Z,14.08
2022-11-01T07:15:41.442Z,14.05
2022-11-01T07:18:09.704Z,14.00
2022-11-01T07:20:42.309Z,14.12
2022-11-01T07:23:11.665Z,14.19
2022-11-01T07:25:39.281Z,14.28
2022-11-01T07:28:06.923Z,14.32
2022-11-01T07:30:34.545Z,14.17
2022-11-01T07:33:05.742Z,14.31
2022-11-01T07:35:34.650Z,14.37
2022-11-01T07:38:05.189Z,14.30
2022-11-01T07:40:36.850Z,14.31
2022-11-01T07:43:04.857Z,14.36
2022-11-01T07:45:33.355Z,14.36
2022-11-01T07:48:17.021Z,14.32
2022-11-01T08:38:23.069Z,14.61
2022-11-01T08:40:50.850Z,14.71
2022-11-01T08:43:18.749Z,14.85
2022-11-01T08:45:46.625Z,15.18
2022-11-01T08:48:14.963Z,15.35
2022-11-01T08:50:42.772Z,15.37
2022-11-01T08:53:12.095Z,15.58
2022-11-01T08:55:41.762Z,15.47
2022-11-01T08:58:09.981Z,15.67
2022-11-01T09:00:38.000Z,15.75
2022-11-01T09:03:06.356Z,15.70
2022-11-01T09:05:34.458Z,15.82
2022-11-01T09:08:03.009Z,16.00
2022-11-01T09:10:32.180Z,15.96
2022-11-01T09:13:02.375Z,16.13
2022-11-01T09:15:31.197Z,15.96
2022-11-01T09:17:59.071Z,16.22
2022-11-01T09:20:28.208Z,16.43
2022-11-01T09:22:56.112Z,16.33
2022-11-01T09:25:24.788Z,16.40
2022-11-01T09:27:52.608Z,16.42
2022-11-01T09:30:21.960Z,16.64
2022-11-01T09:32:49.798Z,16.43
2022-11-01T09:35:18.040Z,16.37
2022-11-01T09:37:45.902Z,16.26
2022-11-01T09:40:15.784Z,16.32
2022-11-01T09:42:45.371Z,16.48
2022-11-01T09:45:18.852Z,16.66
2022-11-01T09:47:51.270Z,16.91
2022-11-01T09:50:23.573Z,16.82
2022-11-01T09:52:52.318Z,16.99
2022-11-01T09:55:27.114Z,17.26
2022-11-01T09:58:02.111Z,17.17
2022-11-01T10:00:36.613Z,17.25
2022-11-01T10:03:35.600Z,17.26
2022-11-01T10:06:11.763Z,17.31
2022-11-01T10:08:54.557Z,17.22
2022-11-01T10:11:44.819Z,17.25
2022-11-01T10:14:28.648Z,17.05
2022-11-01T10:17:06.858Z,17.35
2022-11-01T10:19:51.804Z,17.58
2022-11-01T10:22:24.952Z,17.28
2022-11-01T10:24:58.574Z,17.35
2022-11-01T10:27:36.266Z,17.48
2022-11-01T10:30:12.270Z,17.64
2022-11-01T10:32:46.840Z,17.57
2022-11-01T10:35:26.513Z,17.48
2022-11-01T10:38:19.246Z,17.32
2022-11-01T10:40:56.345Z,17.78
2022-11-01T10:43:26.887Z,17.78
2022-11-01T10:45:58.816Z,17.60
2022-11-01T10:48:33.012Z,17.42
2022-11-01T10:51:06.634Z,17.36
2022-11-01T10:53:38.914Z,17.66
2022-11-01T10:56:10.281Z,17.74
2022-11-01T10:58:43.686Z,17.91
2022-11-01T11:01:15.911Z,17.99
2022-11-01T11:03:46.880Z,17.82
2022-11-01T11:06:16.874Z,17.86
2022-11-01T11:08:50.320Z,17.96
2022-11-01T11:11:23.308Z,17.78
2022-11-01T11:13:55.140Z,18.02
2022-11-01T11:16:31.602Z,17.83
2022-11-01T11:19:04.129Z,17.90
2022-11-01T11:21:36.344Z,17.97
2022-11-01T11:24:04.527Z,18.09
2022-11-01T11:26:39.069Z,18.01
2022-11-01T11:29:07.336Z,18.08
2022-11-01T11:31:36.135Z,18.03
2022-11-01T11:34:16.349Z,18.42
2022-11-01T11:36:49.821Z,18.44
2022-11-01T11:39:25.813Z,18.33
2022-11-01T11:41:53.730Z,18.41
2022-11-01T11:44:41.386Z,18.34
2022-11-01T11:47:19.503Z,18.13
2022-11-01T11:49:48.491Z,18.42
2022-11-01T11:52:21.801Z,18.80
2022-11-01T11:54:51.272Z,18.62
2022-11-01T11:57:22.014Z,18.87
2022-11-01T11:59:55.478Z,18.79
2022-11-01T12:02:27.621Z,18.64
2022-11-01T12:04:58.364Z,18.75
2022-11-01T12:07:31.075Z,19.00
2022-11-01T12:10:02.918Z,18.97
2022-11-01T12:12:32.503Z,18.61
2022-11-01T12:15:02.088Z,18.55
2022-11-01T12:17:33.387Z,18.60
2022-11-01T12:20:04.093Z,18.27
2022-11-01T12:22:36.287Z,18.28
2022-11-01T12:25:08.265Z,18.53
2022-11-01T12:27:36.790Z,18.38
2022-11-01T12:30:08.618Z,18.45
2022-11-01T12:32:44.996Z,18.15
2022-11-01T12:35:21.983Z,18.22
2022-11-01T12:38:02.200Z,18.13
2022-11-01T12:40:33.323Z,18.27
2022-11-01T12:43:06.848Z,17.89
2022-11-01T12:45:44.811Z,17.96
2022-11-01T12:48:18.263Z,17.96
2022-11-01T12:50:51.680Z,17.71
2022-11-01T12:53:26.434Z,17.88
2022-11-01T12:55:54.681Z,17.79
2022-11-01T12:58:24.047Z,17.89
2022-11-01T13:01:08.971Z,17.65
2022-11-01T13:03:47.642Z,17.79
2022-11-01T13:06:39.660Z,18.20
2022-11-01T13:09:14.976Z,18.04
2022-11-01T13:11:54.681Z,17.97
2022-11-01T13:14:38.937Z,18.09
2022-11-01T13:17:14.235Z,18.24
2022-11-01T13:19:50.759Z,18.06
2022-11-01T13:22:24.042Z,18.14
2022-11-01T13:25:00.650Z,18.02
2022-11-01T13:27:37.312Z,17.91
2022-11-01T13:30:10.606Z,17.80
2022-11-01T13:32:46.222Z,17.68
2022-11-01T13:35:34.393Z,18.13
2022-11-01T13:38:09.911Z,18.11
2022-11-01T13:40:47.467Z,18.41
2022-11-01T13:43:19.454Z,18.88
2022-11-01T13:46:15.763Z,18.97
2022-11-01T13:49:04.434Z,19.01
2022-11-01T13:51:44.267Z,18.49
2022-11-01T13:54:22.149Z,18.96
2022-11-01T13:56:56.991Z,19.29
2022-11-01T13:59:33.840Z,19.02
2022-11-01T14:02:38.521Z,18.72
2022-11-01T14:05:09.852Z,18.97
2022-11-01T14:07:39.000Z,19.14
2022-11-01T14:10:11.984Z,19.19
2022-11-01T14:12:48.110Z,18.88
2022-11-01T14:15:24.737Z,19.09
2022-11-01T14:18:07.749Z,18.79
2022-11-01T14:20:51.748Z,19.24
2022-11-01T14:24:00.284Z,18.62
2022-11-01T14:26:39.893Z,18.36
2022-11-01T14:29:13.020Z,18.21
2022-11-01T14:31:44.257Z,18.59
2022-11-01T14:34:35.395Z,18.32
2022-11-01T14:37:14.913Z,18.07
2022-11-01T14:39:49.040Z,17.88
2022-11-01T14:42:23.123Z,17.85
2022-11-01T14:44:54.913Z,17.62
2022-11-01T14:47:36.733Z,17.75
2022-11-01T14:50:15.732Z,17.60
2022-11-01T14:52:48.609Z,17.54
2022-11-01T14:55:19.892Z,17.11
2022-11-01T14:57:48.571Z,16.99
2022-11-01T15:00:26.385Z,16.94
2022-11-01T15:02:54.291Z,16.92
2022-11-01T15:05:22.415Z,16.97
2022-11-01T15:07:52.607Z,16.80
2022-11-01T15:10:21.088Z,17.06
2022-11-01T15:12:52.769Z,16.71
2022-11-01T15:15:24.920Z,16.72
2022-11-01T15:17:56.431Z,16.60
2022-11-01T15:20:27.346Z,16.38
2022-11-01T15:22:57.779Z,16.44
2022-11-01T15:25:27.499Z,16.46
2022-11-01T15:27:57.070Z,16.34
2022-11-01T15:30:30.140Z,16.22
2022-11-01T15:33:16.878Z,16.22
2022-11-01T15:35:53.417Z,16.20
2022-11-01T15:38:22.124Z,16.00
2022-11-01T15:40:52.194Z,16.01
2022-11-01T15:43:22.173Z,15.90
2022-11-01T15:45:54.867Z,15.79
2022-11-01T15:48:26.791Z,15.67
2022-11-01T15:50:58.334Z,15.68
2022-11-01T15:53:29.417Z,15.48
2022-11-01T15:56:03.445Z,15.52
2022-11-01T15:58:37.556Z,15.40
2022-11-01T16:01:14.121Z,15.39
2022-11-01T16:03:44.922Z,15.37
2022-11-01T16:06:17.785Z,15.24
2022-11-01T16:08:52.001Z,15.01
2022-11-01T16:11:22.597Z,15.00
2022-11-01T16:13:52.849Z,15.00
2022-11-01T16:16:22.139Z,15.03
2022-11-01T16:18:50.029Z,15.14
2022-11-01T16:21:36.305Z,15.03
2022-11-01T16:24:15.484Z,15.06
2022-11-01T16:26:58.392Z,15.17
2022-11-01T16:29:43.703Z,15.06
2022-11-01T16:32:20.816Z,15.01
2022-11-01T16:34:49.031Z,15.18
2022-11-01T16:37:22.660Z,14.90
2022-11-01T16:39:50.531Z,14.82
2022-11-01T16:42:19.166Z,14.71
2022-11-01T16:44:55.861Z,14.74
2022-11-01T16:47:25.140Z,14.77
2022-11-01T16:49:55.056Z,14.71
2022-11-01T16:52:22.935Z,14.49
2022-11-01T16:54:51.417Z,14.33
2022-11-01T16:57:26.027Z,14.46
2022-11-01T16:59:55.589Z,14.30
2022-11-01T17:02:27.990Z,14.24
2022-11-01T17:04:59.645Z,14.23
2022-11-01T17:07:27.663Z,14.10
2022-11-01T17:09:55.703Z,14.14
2022-11-01T17:12:23.538Z,14.02
2022-11-01T17:14:52.470Z,13.96
2022-11-01T17:17:24.651Z,13.92
2022-11-01T17:19:59.882Z,13.84
2022-11-01T17:22:35.127Z,13.66
2022-11-01T17:25:04.639Z,13.63
2022-11-01T17:27:32.591Z,13.47
2022-11-01T17:30:00.479Z,13.51
2022-11-01T17:32:28.775Z,13.51
2022-11-01T17:34:57.983Z,13.45
2022-11-01T17:37:29.997Z,13.54
2022-11-01T17:39:57.858Z,13.43
2022-11-01T17:42:25.665Z,13.32
2022-11-01T17:44:53.686Z,13.22
2022-11-01T17:47:21.606Z,12.98
2022-11-01T17:49:49.453Z,13.16
2022-11-01T17:52:18.921Z,13.09
2022-11-01T17:54:46.680Z,12.85
2022-11-01T17:57:14.491Z,12.87
2022-11-01T17:59:42.348Z,12.53
2022-11-01T18:02:11.014Z,12.69
2022-11-01T18:04:38.890Z,12.87
2022-11-01T18:07:07.478Z,12.77
2022-11-01T18:09:37.355Z,12.73
2022-11-01T18:12:11.677Z,12.59
2022-11-01T18:14:50.543Z,12.59
2022-11-01T18:17:35.801Z,12.51
2022-11-01T18:20:14.145Z,12.66
2022-11-01T18:22:50.428Z,12.63
2022-11-01T18:25:28.505Z,12.64
2022-11-01T18:28:00.152Z,12.46
2022-11-01T18:30:28.509Z,12.13
2022-11-01T18:33:03.262Z,12.24
2022-11-01T18:35:34.448Z,12.21
2022-11-01T18:38:17.810Z,12.23
2022-11-01T18:40:56.674Z,12.04
2022-11-01T18:43:25.107Z,12.10
2022-11-01T18:46:23.280Z,12.05
2022-11-01T18:48:42.932Z,11.94
2022-11-01T18:51:14.913Z,11.77
2022-11-01T18:53:43.064Z,11.80
2022-11-01T18:56:21.298Z,11.64
2022-11-01T18:58:50.439Z,11.53
2022-11-01T19:01:19.794Z,11.45
2022-11-01T19:03:57.154Z,11.66
2022-11-01T19:06:27.095Z,11.66
2022-11-01T19:08:57.016Z,11.59
2022-11-01T19:11:26.933Z,11.57
2022-11-01T19:13:55.731Z,11.57
2022-11-01T19:16:23.567Z,11.44
2022-11-01T19:18:52.344Z,11.43
2022-11-01T19:21:21.473Z,11.31
2022-11-01T19:23:51.223Z,11.18
2022-11-01T19:26:23.873Z,11.28
2022-11-01T19:28:53.742Z,11.20
2022-11-01T19:31:25.929Z,11.22
2022-11-01T19:33:59.012Z,11.18
2022-11-01T19:36:36.588Z,11.13
2022-11-01T19:39:18.118Z,10.95
2022-11-01T19:41:46.491Z,10.84
2022-11-01T19:44:20.379Z,10.96
2022-11-01T19:46:48.814Z,10.85
2022-11-01T19:49:22.554Z,10.83
2022-11-01T19:51:59.196Z,10.84
2022-11-01T19:54:29.903Z,10.90
2022-11-01T19:57:00.246Z,10.76
2022-11-01T19:59:29.872Z,10.83
2022-11-01T20:01:59.035Z,10.69
2022-11-01T20:04:29.671Z,10.69
2022-11-01T20:07:01.273Z,10.68
2022-11-01T20:09:31.657Z,10.63
2022-11-01T20:12:01.595Z,10.59
2022-11-01T20:14:33.271Z,10.40
2022-11-01T20:17:01.075Z,10.60
2022-11-01T20:19:29.145Z,10.45
2022-11-01T20:21:57.131Z,10.56
2022-11-01T20:24:24.914Z,10.68
2022-11-01T20:26:52.757Z,10.50
2022-11-01T20:29:20.620Z,10.62
2022-11-01T20:31:49.976Z,10.41
2022-11-01T20:34:17.866Z,10.53
2022-11-01T20:37:02.225Z,10.29
2022-11-01T20:39:33.737Z,10.53
2022-11-01T20:42:02.037Z,10.60
2022-11-01T20:44:30.181Z,10.37
2022-11-01T20:46:59.675Z,10.11
2022-11-01T20:49:27.853Z,10.40
2022-11-01T20:52:00.520Z,10.27
2022-11-01T20:54:36.061Z,10.51
2022-11-01T20:57:04.504Z,9.90
2022-11-01T20:59:32.420Z,10.06
2022-11-01T21:02:04.013Z,9.69
2022-11-01T21:04:32.491Z,9.61
2022-11-01T21:07:00.364Z,9.90
2022-11-01T21:09:32.428Z,10.08
2022-11-01T21:12:00.431Z,9.73
2022-11-01T21:14:37.280Z,9.81
2022-11-01T21:17:17.759Z,9.61
2022-11-01T21:19:50.140Z,9.71
2022-11-01T21:22:20.842Z,9.66
2022-11-01T21:24:50.350Z,9.76
2022-11-01T21:27:25.243Z,9.98
2022-11-01T21:29:54.112Z,9.54
2022-11-01T21:32:29.846Z,9.55
2022-11-01T21:34:58.475Z,9.43
2022-11-01T21:37:29.714Z,9.34
2022-11-01T21:40:05.718Z,8.97
2022-11-01T21:42:37.059Z,8.99
2022-11-01T21:45:28.323Z,8.95
2022-11-01T21:48:00.854Z,9.01
2022-11-01T21:50:28.931Z,8.98
2022-11-01T21:52:56.698Z,8.96
2022-11-01T21:55:24.453Z,8.88
2022-11-01T21:57:52.272Z,9.04
2022-11-01T22:00:20.133Z,9.03
2022-11-01T22:02:47.951Z,8.87
2022-11-01T22:05:17.380Z,8.99
2022-11-01T22:07:45.210Z,9.05
2022-11-01T22:10:13.039Z,9.00
2022-11-01T22:12:40.854Z,9.13
2022-11-01T22:15:09.524Z,8.98
2022-11-01T22:17:37.296Z,8.81
2022-11-01T22:20:06.082Z,8.87
2022-11-01T22:22:35.211Z,8.76
2022-11-01T22:25:02.995Z,8.78
2022-11-01T22:27:30.786Z,8.83
2022-11-01T22:29:58.645Z,9.09
2022-11-01T22:32:26.393Z,8.93
2022-11-01T22:34:54.216Z,8.97
2022-11-01T22:37:21.979Z,8.87
2022-11-01T22:39:53.128Z,9.16
2022-11-01T22:42:21.909Z,9.03
2022-11-01T22:44:51.613Z,9.20
2022-11-01T22:47:25.559Z,9.18
2022-11-01T22:49:55.525Z,9.21
2022-11-01T22:52:31.671Z,9.26
2022-11-01T22:55:06.820Z,9.25
2022-11-01T22:57:36.643Z,9.36
2022-11-01T23:00:28.095Z,9.24
2022-11-01T23:03:01.241Z,9.07
2022-11-01T23:05:29.835Z,9.14
2022-11-01T23:08:01.687Z,8.78
2022-11-01T23:10:32.866Z,8.87
2022-11-01T23:13:25.454Z,9.04
2022-11-01T23:15:53.361Z,8.82
2022-11-01T23:18:23.916Z,8.96
2022-11-01T23:20:54.544Z,8.97
2022-11-01T23:23:22.430Z,8.92
2022-11-01T23:25:53.226Z,8.74
2022-11-01T23:28:21.230Z,8.64
2022-11-01T23:30:49.565Z,8.72
2022-11-01T23:33:20.109Z,9.04
2022-11-01T23:35:52.013Z,9.06
2022-11-01T23:38:22.661Z,8.72
2022-11-01T23:40:54.823Z,8.66
2022-11-01T23:43:25.476Z,8.46
2022-11-01T23:45:53.674Z,8.72
2022-11-01T23:48:23.732Z,8.46
2022-11-01T23:50:54.137Z,8.64
2022-11-01T23:53:29.283Z,8.52
2022-11-01T23:56:00.026Z,8.60
2022-11-01T23:58:30.939Z,8.62
